Koyo Maru No.8 — JL6213 — position and weather

sailwx.info

Track history (hours):
 
Tides and Currents Weather Stations Pressure Air Temp Water Temp Dewpoint Dewpoint Depression Visibility Wind Speed Wind Dir Waves Ship Positions

Koyo Maru No.8

Last reported at 2018-Apr-25 06:28 UTC. Time now 2018-Apr-25 06:48 UTC.
Position N 35°32' E 139°45'.

Length 70 m; draft 4.5 m.

Type: Tanker. MMSI: 431500123.

Date/timePositionNaut miles runAvg speedWind from/ knotsBaromVisibWave heightAir tempDewpointWater temp
2018-Apr-25 06:28N 35°32' E 139°45'0 0.0
2018-Apr-25 05:59N 35°32' E 139°45'0 0.0
2018-Apr-25 05:28N 35°32' E 139°45'0 0.0
2018-Apr-25 05:00N 35°32' E 139°45'0 0.0
2018-Apr-25 04:30N 35°32' E 139°45'2 3.9
2018-Apr-25 04:00N 35°30' E 139°47'2 4.2
2018-Apr-25 03:30N 35°30' E 139°50'2 3.6
2018-Apr-25 03:00N 35°30' E 139°52'4 7.8
2018-Apr-25 02:30N 35°30' E 139°57'1 1.8
2018-Apr-25 01:51N 35°30' E 139°58'0 0.0
2018-Apr-25 01:24N 35°30' E 139°58'0 0.0
2018-Apr-25 00:57N 35°30' E 139°58'0 0.0
2018-Apr-25 00:24N 35°30' E 139°58'0 0.0
2018-Apr-24 23:51N 35°30' E 139°58'0 0.0
2018-Apr-24 23:30N 35°30' E 139°58'0 0.0
2018-Apr-24 22:57N 35°30' E 139°58'0 0.0
2018-Apr-24 22:30N 35°30' E 139°58'0 0.0
2018-Apr-24 22:00N 35°30' E 139°58'0 0.0
2018-Apr-24 21:27N 35°30' E 139°58'0 0.0
2018-Apr-24 21:00N 35°30' E 139°58'0 0.0
2018-Apr-24 20:30N 35°30' E 139°58'0 0.0
2018-Apr-24 20:00N 35°30' E 139°58'0 0.0
2018-Apr-24 19:30N 35°30' E 139°58'0 0.0
2018-Apr-24 19:00N 35°30' E 139°58'0 0.0
2018-Apr-24 18:30N 35°30' E 139°58'0 0.0
2018-Apr-24 18:00N 35°30' E 139°58'0 0.0
2018-Apr-24 17:30N 35°30' E 139°58'0 0.0
2018-Apr-24 16:54N 35°30' E 139°58'0 0.0
2018-Apr-24 16:30N 35°30' E 139°58'0 0.0
2018-Apr-24 15:57N 35°30' E 139°58'0 0.0
2018-Apr-24 15:30N 35°30' E 139°58'0 0.0
2018-Apr-24 15:00N 35°30' E 139°58'0 0.0
2018-Apr-24 14:30N 35°30' E 139°58'0 0.0
2018-Apr-24 14:00N 35°30' E 139°58'0 0.1
2018-Apr-24 13:24N 35°30' E 139°58'0 0.0
2018-Apr-24 13:00N 35°30' E 139°58'0 0.0
2018-Apr-24 12:24N 35°30' E 139°58'0 0.0
2018-Apr-24 11:57N 35°30' E 139°58'0 0.1
2018-Apr-24 11:24N 35°30' E 139°58'0 0.0
2018-Apr-24 11:00N 35°30' E 139°58'0 0.1
2018-Apr-24 10:21N 35°30' E 139°58'0 0.0
2018-Apr-24 10:00N 35°30' E 139°58'0 0.0
2018-Apr-24 09:30N 35°30' E 139°58'0 0.0
2018-Apr-24 08:54N 35°30' E 139°58'0 0.0
2018-Apr-24 08:30N 35°30' E 139°58'0 0.0
2018-Apr-24 07:57N 35°30' E 139°58'0 0.1
2018-Apr-24 07:28N 35°30' E 139°58'2 1.0
2018-Apr-24 05:18N 35°29' E 140°01'1 3.3
2018-Apr-24 05:00N 35°29' E 139°60'510.1
2018-Apr-24 04:30N 35°29' E 139°54'510.0
2018-Apr-24 04:00N 35°27' E 139°48'510.2
2018-Apr-24 03:30N 35°27' E 139°42'2 3.2
2018-Apr-24 03:00N 35°28' E 139°40'0 0.0
2018-Apr-24 02:28N 35°28' E 139°40'0 0.0
2018-Apr-24 01:58N 35°28' E 139°40'0 0.0
2018-Apr-24 01:28N 35°28' E 139°40'0 0.0
2018-Apr-24 01:01N 35°28' E 139°40'1 1.4
2018-Apr-24 00:30N 35°27' E 139°40'2 4.4
2018-Apr-23 23:59N 35°26' E 139°43'0 0.0
2018-Apr-23 23:29N 35°26' E 139°43'0 0.0
2018-Apr-23 22:59N 35°26' E 139°43'1 2.9
2018-Apr-23 22:30N 35°25' E 139°44'5 9.0
2018-Apr-23 22:00N 35°21' E 139°43'5 9.7
2018-Apr-23 21:30N 35°16' E 139°46'5 9.3
2018-Apr-23 21:00N 35°12' E 139°47'510.1
2018-Apr-23 20:30N 35°07' E 139°46'510.4
2018-Apr-23 20:00N 35°03' E 139°42'510.3
2018-Apr-23 19:30N 34°59' E 139°37'611.5
2018-Apr-23 19:00N 34°56' E 139°31'1412.1
2018-Apr-23 17:53N 34°48' E 139°18'512.4
2018-Apr-23 17:29N 34°45' E 139°13'612.2
2018-Apr-23 17:00N 34°42' E 139°07'710.8
2018-Apr-23 16:19N 34°37' E 139°00'310.7
2018-Apr-23 16:00N 34°35' E 138°57'510.8
2018-Apr-23 15:29N 34°34' E 138°50'1310.0
2018-Apr-23 14:08N 34°33' E 138°34'310.0
2018-Apr-23 13:52N 34°33' E 138°30'7 9.8
2018-Apr-23 13:09N 34°33' E 138°22'3 9.8
2018-Apr-23 12:50N 34°33' E 138°18'5510.1
2018-Apr-23 07:25N 34°32' E 137°12'17 9.5
2018-Apr-23 05:36N 34°39' E 136°52'1 9.4
2018-Apr-23 05:30N 34°39' E 136°51'5 9.1
2018-Apr-23 05:01N 34°43' E 136°48'5 9.4
2018-Apr-23 04:30N 34°48' E 136°46'5 9.5
2018-Apr-23 04:00N 34°52' E 136°45'5 9.8
2018-Apr-23 03:30N 34°57' E 136°43'4 8.0
2018-Apr-23 03:00N 35°00' E 136°40'0 0.1
2018-Apr-23 02:30N 35°00' E 136°40'0 0.0
2018-Apr-23 02:01N 35°00' E 136°40'0 0.0
2018-Apr-23 01:30N 35°00' E 136°40'0 0.0
2018-Apr-23 01:01N 35°00' E 136°40'0 0.0
2018-Apr-23 00:30N 35°00' E 136°40'0 0.0
2018-Apr-23 00:01N 35°00' E 136°40'0 0.1
2018-Apr-22 23:31N 35°00' E 136°40'2 4.5
2018-Apr-22 23:00N 34°58' E 136°42'3 5.9
2018-Apr-22 22:31N 34°57' E 136°38'0 0.2
2018-Apr-22 22:00N 34°57' E 136°38'0 0.0
2018-Apr-22 16:45N 34°57' E 136°38'0 0.0
2018-Apr-22 16:21N 34°57' E 136°38'0 0.0
2018-Apr-22 15:57N 34°57' E 136°38'0 0.0
2018-Apr-22 15:27N 34°57' E 136°38'0 0.0
2018-Apr-22 13:21N 34°57' E 136°38'0 0.0
2018-Apr-22 12:51N 34°57' E 136°38'0 0.0
2018-Apr-22 12:27N 34°57' E 136°38'0 0.0
2018-Apr-22 12:00N 34°57' E 136°38'0 0.0
2018-Apr-22 11:27N 34°57' E 136°38'0 0.0
2018-Apr-22 10:21N 34°57' E 136°38'0 0.0
2018-Apr-22 10:00N 34°57' E 136°38'0 0.0
2018-Apr-22 09:27N 34°57' E 136°38'0 0.0
2018-Apr-22 08:03N 34°57' E 136°38'0 0.0
2018-Apr-22 07:57N 34°57' E 136°38'0 0.0
2018-Apr-22 07:27N 34°57' E 136°38'0 0.0
2018-Apr-22 06:39N 34°57' E 136°38'0 0.0
2018-Apr-22 06:27N 34°57' E 136°38'0 0.0
2018-Apr-22 05:57N 34°57' E 136°38'0 0.0
2018-Apr-22 05:27N 34°57' E 136°38'0 0.0
2018-Apr-22 04:57N 34°57' E 136°38'0 0.0
2018-Apr-22 04:30N 34°57' E 136°38'0 0.0
2018-Apr-22 03:57N 34°57' E 136°38'0 0.0
2018-Apr-22 03:30N 34°57' E 136°38'0 0.0
2018-Apr-22 02:57N 34°57' E 136°38'0 0.0
2018-Apr-22 02:27N 34°57' E 136°38'0 0.0
2018-Apr-22 01:57N 34°57' E 136°38'0 0.0
2018-Apr-22 01:27N 34°57' E 136°38'0 0.0
2018-Apr-22 00:57N 34°57' E 136°38'0 0.0
2018-Apr-21 23:22N 34°57' E 136°38'0 0.2
2018-Apr-21 23:00N 34°57' E 136°38'4 7.2
2018-Apr-21 22:30N 34°56' E 136°43'2 3.8
2018-Apr-21 22:00N 34°54' E 136°44'1 2.9
2018-Apr-21 21:30N 34°53' E 136°44'1 3.0
2018-Apr-21 21:00N 34°51' E 136°45'3 6.4
2018-Apr-21 20:30N 34°48' E 136°46'510.4
2018-Apr-21 20:00N 34°44' E 136°49'510.6
2018-Apr-21 19:30N 34°39' E 136°53'910.4
2018-Apr-21 18:40N 34°34' E 137°01'2 9.7
2018-Apr-21 18:30N 34°32' E 137°02'510.0
2018-Apr-21 18:00N 34°28' E 137°03'105 8.1
2018-Apr-21 05:06N 33°48' E 135°06'410.3
2018-Apr-21 04:44N 33°51' E 135°03'210.4
2018-Apr-21 04:30N 33°53' E 135°02'510.1
2018-Apr-21 04:00N 33°58' E 135°02'5 9.8
2018-Apr-21 03:30N 34°03' E 135°03'5 9.6
2018-Apr-21 03:00N 34°07' E 135°04'5 9.7
2018-Apr-21 02:31N 34°09' E 135°10'2 3.3
2018-Apr-21 02:00N 34°09' E 135°12'0 0.0
2018-Apr-21 00:21N 34°09' E 135°12'0 0.9
2018-Apr-21 00:00N 34°09' E 135°12'2 3.6
2018-Apr-20 23:28N 34°09' E 135°10'0 0.0
2018-Apr-20 22:58N 34°09' E 135°10'0 0.0
2018-Apr-20 22:28N 34°09' E 135°10'0 0.0
2018-Apr-20 21:58N 34°09' E 135°10'0 0.0
2018-Apr-20 21:28N 34°09' E 135°10'0 0.0
2018-Apr-20 20:58N 34°09' E 135°10'0 0.0
2018-Apr-20 20:28N 34°09' E 135°10'0 0.0
2018-Apr-20 19:58N 34°09' E 135°10'0 0.0
2018-Apr-20 19:28N 34°09' E 135°10'0 0.0
2018-Apr-20 18:58N 34°09' E 135°10'0 0.0
2018-Apr-20 18:28N 34°09' E 135°10'0 0.5
2018-Apr-20 18:00N 34°10' E 135°09'510.1
2018-Apr-20 17:31N 34°13' E 135°04'510.0
2018-Apr-20 17:00N 34°16' E 134°60'4 8.5
2018-Apr-20 16:30N 34°20' E 134°60'5 9.2
2018-Apr-20 16:00N 34°25' E 135°01'5 9.7
2018-Apr-20 15:30N 34°30' E 135°02'4 8.8
2018-Apr-20 15:00N 34°34' E 135°03'3 5.7
2018-Apr-20 14:30N 34°37' E 135°01'3 6.8
2018-Apr-20 14:00N 34°36' E 134°57'4 7.8
2018-Apr-20 13:31N 34°35' E 134°53'4 7.9
2018-Apr-20 13:00N 34°33' E 134°49'5 9.2
2018-Apr-20 12:30N 34°31' E 134°43'5 9.9
2018-Apr-20 12:01N 34°29' E 134°38'510.4
2018-Apr-20 11:30N 34°27' E 134°32'510.3
2018-Apr-20 11:00N 34°26' E 134°26'510.5
2018-Apr-20 10:30N 34°24' E 134°20'710.5
2018-Apr-20 09:49N 34°25' E 134°12'5 0.1
2018-Apr-18 22:58N 34°24' E 134°17'611.6
2018-Apr-18 22:28N 34°26' E 134°24'511.6
2018-Apr-18 22:00N 34°28' E 134°30'611.5
2018-Apr-18 21:30N 34°30' E 134°37'611.1
2018-Apr-18 20:59N 34°32' E 134°43'510.9
2018-Apr-18 20:30N 34°34' E 134°49'5 9.8
2018-Apr-18 20:00N 34°36' E 134°54'4 8.7
2018-Apr-18 19:30N 34°38' E 134°59'4 7.1
2018-Apr-18 19:00N 34°36' E 135°03'4 7.7
2018-Apr-18 18:30N 34°33' E 135°05'611.0
2018-Apr-18 18:00N 34°27' E 135°03'510.5
2018-Apr-18 17:30N 34°22' E 135°01'510.4
2018-Apr-18 17:00N 34°17' E 134°59'510.5
2018-Apr-18 16:30N 34°12' E 134°60'611.3
2018-Apr-18 16:00N 34°06' E 135°01'611.4
2018-Apr-18 15:30N 34°01' E 135°01'510.9
2018-Apr-18 15:00N 33°55' E 135°02'510.2
2018-Apr-18 14:30N 33°50' E 135°04'172 9.7
2018-Apr-17 20:42N 34°34' E 138°25'211.0
2018-Apr-17 20:30N 34°34' E 138°28'611.1
2018-Apr-17 19:58N 34°35' E 138°35'711.3
2018-Apr-17 19:23N 34°35' E 138°43'411.7
2018-Apr-17 19:00N 34°35' E 138°49'612.2
2018-Apr-17 18:30N 34°36' E 138°56'612.2
2018-Apr-17 18:00N 34°39' E 139°02'811.9
2018-Apr-17 17:21N 34°45' E 139°08'411.5
2018-Apr-17 17:00N 34°48' E 139°12'1710.7
2018-Apr-17 15:25N 34°58' E 139°29'510.2
2018-Apr-17 14:54N 35°01' E 139°34'410.3
2018-Apr-17 14:30N 35°03' E 139°38'510.8
2018-Apr-17 14:00N 35°07' E 139°43'612.0
2018-Apr-17 13:30N 35°12' E 139°46'612.1
2018-Apr-17 13:00N 35°18' E 139°44'611.3
2018-Apr-17 12:30N 35°23' E 139°43'611.6
2018-Apr-17 12:00N 35°27' E 139°48'510.8
2018-Apr-17 11:30N 35°29' E 139°54'510.5
2018-Apr-17 11:00N 35°29' E 140°00'0 0.7
2018-Apr-17 10:30N 35°29' E 140°01'0 0.0
2018-Apr-17 09:59N 35°29' E 140°01'0 0.1
2018-Apr-17 09:30N 35°29' E 140°01'0 0.1
2018-Apr-17 09:01N 35°29' E 140°01'0 0.0
2018-Apr-17 08:29N 35°29' E 140°01'0 0.0
2018-Apr-17 08:00N 35°29' E 140°01'0 0.1
2018-Apr-17 07:29N 35°29' E 140°01'0 0.1
2018-Apr-17 06:57N 35°29' E 140°01'0 0.0
2018-Apr-17 06:29N 35°29' E 140°01'0 0.0
2018-Apr-17 05:58N 35°29' E 140°01'0 0.0
2018-Apr-17 05:27N 35°29' E 140°01'1 2.9
2018-Apr-17 05:00N 35°30' E 139°59'1 1.6
2018-Apr-17 04:23N 35°30' E 139°58'0 0.0
2018-Apr-17 03:59N 35°30' E 139°58'0 0.0
2018-Apr-17 03:23N 35°30' E 139°58'0 0.0
2018-Apr-17 02:56N 35°30' E 139°58'0 0.0
2018-Apr-17 02:29N 35°30' E 139°58'0 0.0
2018-Apr-17 01:56N 35°30' E 139°58'0 0.0
2018-Apr-17 01:29N 35°30' E 139°58'0 0.0
2018-Apr-17 00:59N 35°30' E 139°58'0 0.0
2018-Apr-17 00:29N 35°30' E 139°58'0 0.1
2018-Apr-16 23:56N 35°30' E 139°58'0 0.1
2018-Apr-16 23:29N 35°30' E 139°58'0 0.0
2018-Apr-16 22:59N 35°30' E 139°58'0 0.0
2018-Apr-16 22:29N 35°30' E 139°58'0 0.1
2018-Apr-16 21:56N 35°30' E 139°58'0 0.0
2018-Apr-16 21:20N 35°30' E 139°58'0 0.0
2018-Apr-16 20:59N 35°30' E 139°58'0 0.4
2018-Apr-16 20:30N 35°30' E 139°58'5 9.9
2018-Apr-16 20:00N 35°28' E 139°52'510.0
2018-Apr-16 19:29N 35°25' E 139°47'510.2
2018-Apr-16 19:00N 35°21' E 139°45'5 9.8
2018-Apr-16 18:30N 35°16' E 139°47'510.3
2018-Apr-16 18:00N 35°11' E 139°47'5 9.7
2018-Apr-16 17:30N 35°06' E 139°45'5 9.9
2018-Apr-16 17:00N 35°03' E 139°40'510.0
2018-Apr-16 16:30N 34°59' E 139°36'2110.7
2018-Apr-16 14:31N 34°47' E 139°15'110.8
2018-Apr-16 14:28N 34°46' E 139°14'710.8
2018-Apr-16 13:47N 34°42' E 139°07'410.3
2018-Apr-16 13:26N 34°40' E 139°04'610.5
2018-Apr-16 12:50N 34°36' E 138°58'201 9.1
2018-Apr-15 14:46N 33°52' E 135°01'311.2
2018-Apr-15 14:28N 33°54' E 134°58'611.2
2018-Apr-15 13:55N 33°59' E 134°54'511.2
2018-Apr-15 13:28N 34°03' E 134°50'510.9
2018-Apr-15 13:00N 34°07' E 134°46'611.2
2018-Apr-15 12:28N 34°12' E 134°41'510.8
2018-Apr-15 11:59N 34°16' E 134°37'510.7
2018-Apr-15 11:31N 34°17' E 134°32'510.6
2018-Apr-15 11:00N 34°19' E 134°26'810.1
2018-Apr-15 10:10N 34°23' E 134°16'  
Track history (hours):
 
Tides and Currents Weather Stations Pressure Air Temp Water Temp Dewpoint Dewpoint Depression Visibility Wind Speed Wind Dir Waves Ship Positions

Koyo Maru No.8

Last reported at 2018-Apr-25 06:28 UTC. Time now 2018-Apr-25 06:48 UTC.
Position N 35°32' E 139°45'.

Length 70 m; draft 4.5 m.

Type: Tanker. MMSI: 431500123.

Date/timePositionNaut miles runAvg speedWind from/ knotsBaromVisibWave heightAir tempDewpointWater temp
2018-Apr-25 06:28N 35°32' E 139°45'0 0.0
2018-Apr-25 05:59N 35°32' E 139°45'0 0.0
2018-Apr-25 05:28N 35°32' E 139°45'0 0.0
2018-Apr-25 05:00N 35°32' E 139°45'0 0.0
2018-Apr-25 04:30N 35°32' E 139°45'2 3.9
2018-Apr-25 04:00N 35°30' E 139°47'2 4.2
2018-Apr-25 03:30N 35°30' E 139°50'2 3.6
2018-Apr-25 03:00N 35°30' E 139°52'4 7.8
2018-Apr-25 02:30N 35°30' E 139°57'1 1.8
2018-Apr-25 01:51N 35°30' E 139°58'0 0.0
2018-Apr-25 01:24N 35°30' E 139°58'0 0.0
2018-Apr-25 00:57N 35°30' E 139°58'0 0.0
2018-Apr-25 00:24N 35°30' E 139°58'0 0.0
2018-Apr-24 23:51N 35°30' E 139°58'0 0.0
2018-Apr-24 23:30N 35°30' E 139°58'0 0.0
2018-Apr-24 22:57N 35°30' E 139°58'0 0.0
2018-Apr-24 22:30N 35°30' E 139°58'0 0.0
2018-Apr-24 22:00N 35°30' E 139°58'0 0.0
2018-Apr-24 21:27N 35°30' E 139°58'0 0.0
2018-Apr-24 21:00N 35°30' E 139°58'0 0.0
2018-Apr-24 20:30N 35°30' E 139°58'0 0.0
2018-Apr-24 20:00N 35°30' E 139°58'0 0.0
2018-Apr-24 19:30N 35°30' E 139°58'0 0.0
2018-Apr-24 19:00N 35°30' E 139°58'0 0.0
2018-Apr-24 18:30N 35°30' E 139°58'0 0.0
2018-Apr-24 18:00N 35°30' E 139°58'0 0.0
2018-Apr-24 17:30N 35°30' E 139°58'0 0.0
2018-Apr-24 16:54N 35°30' E 139°58'0 0.0
2018-Apr-24 16:30N 35°30' E 139°58'0 0.0
2018-Apr-24 15:57N 35°30' E 139°58'0 0.0
2018-Apr-24 15:30N 35°30' E 139°58'0 0.0
2018-Apr-24 15:00N 35°30' E 139°58'0 0.0
2018-Apr-24 14:30N 35°30' E 139°58'0 0.0
2018-Apr-24 14:00N 35°30' E 139°58'0 0.1
2018-Apr-24 13:24N 35°30' E 139°58'0 0.0
2018-Apr-24 13:00N 35°30' E 139°58'0 0.0
2018-Apr-24 12:24N 35°30' E 139°58'0 0.0
2018-Apr-24 11:57N 35°30' E 139°58'0 0.1
2018-Apr-24 11:24N 35°30' E 139°58'0 0.0
2018-Apr-24 11:00N 35°30' E 139°58'0 0.1
2018-Apr-24 10:21N 35°30' E 139°58'0 0.0
2018-Apr-24 10:00N 35°30' E 139°58'0 0.0
2018-Apr-24 09:30N 35°30' E 139°58'0 0.0
2018-Apr-24 08:54N 35°30' E 139°58'0 0.0
2018-Apr-24 08:30N 35°30' E 139°58'0 0.0
2018-Apr-24 07:57N 35°30' E 139°58'0 0.1
2018-Apr-24 07:28N 35°30' E 139°58'2 1.0
2018-Apr-24 05:18N 35°29' E 140°01'1 3.3
2018-Apr-24 05:00N 35°29' E 139°60'510.1
2018-Apr-24 04:30N 35°29' E 139°54'510.0
2018-Apr-24 04:00N 35°27' E 139°48'510.2
2018-Apr-24 03:30N 35°27' E 139°42'2 3.2
2018-Apr-24 03:00N 35°28' E 139°40'0 0.0
2018-Apr-24 02:28N 35°28' E 139°40'0 0.0
2018-Apr-24 01:58N 35°28' E 139°40'0 0.0
2018-Apr-24 01:28N 35°28' E 139°40'0 0.0
2018-Apr-24 01:01N 35°28' E 139°40'1 1.4
2018-Apr-24 00:30N 35°27' E 139°40'2 4.4
2018-Apr-23 23:59N 35°26' E 139°43'0 0.0
2018-Apr-23 23:29N 35°26' E 139°43'0 0.0
2018-Apr-23 22:59N 35°26' E 139°43'1 2.9
2018-Apr-23 22:30N 35°25' E 139°44'5 9.0
2018-Apr-23 22:00N 35°21' E 139°43'5 9.7
2018-Apr-23 21:30N 35°16' E 139°46'5 9.3
2018-Apr-23 21:00N 35°12' E 139°47'510.1
2018-Apr-23 20:30N 35°07' E 139°46'510.4
2018-Apr-23 20:00N 35°03' E 139°42'510.3
2018-Apr-23 19:30N 34°59' E 139°37'611.5
2018-Apr-23 19:00N 34°56' E 139°31'1412.1
2018-Apr-23 17:53N 34°48' E 139°18'512.4
2018-Apr-23 17:29N 34°45' E 139°13'612.2
2018-Apr-23 17:00N 34°42' E 139°07'710.8
2018-Apr-23 16:19N 34°37' E 139°00'310.7
2018-Apr-23 16:00N 34°35' E 138°57'510.8
2018-Apr-23 15:29N 34°34' E 138°50'1310.0
2018-Apr-23 14:08N 34°33' E 138°34'310.0
2018-Apr-23 13:52N 34°33' E 138°30'7 9.8
2018-Apr-23 13:09N 34°33' E 138°22'3 9.8
2018-Apr-23 12:50N 34°33' E 138°18'5510.1
2018-Apr-23 07:25N 34°32' E 137°12'17 9.5
2018-Apr-23 05:36N 34°39' E 136°52'1 9.4
2018-Apr-23 05:30N 34°39' E 136°51'5 9.1
2018-Apr-23 05:01N 34°43' E 136°48'5 9.4
2018-Apr-23 04:30N 34°48' E 136°46'5 9.5
2018-Apr-23 04:00N 34°52' E 136°45'5 9.8
2018-Apr-23 03:30N 34°57' E 136°43'4 8.0
2018-Apr-23 03:00N 35°00' E 136°40'0 0.1
2018-Apr-23 02:30N 35°00' E 136°40'0 0.0
2018-Apr-23 02:01N 35°00' E 136°40'0 0.0
2018-Apr-23 01:30N 35°00' E 136°40'0 0.0
2018-Apr-23 01:01N 35°00' E 136°40'0 0.0
2018-Apr-23 00:30N 35°00' E 136°40'0 0.0
2018-Apr-23 00:01N 35°00' E 136°40'0 0.1
2018-Apr-22 23:31N 35°00' E 136°40'2 4.5
2018-Apr-22 23:00N 34°58' E 136°42'3 5.9
2018-Apr-22 22:31N 34°57' E 136°38'0 0.2
2018-Apr-22 22:00N 34°57' E 136°38'0 0.0
2018-Apr-22 16:45N 34°57' E 136°38'0 0.0
2018-Apr-22 16:21N 34°57' E 136°38'0 0.0
2018-Apr-22 15:57N 34°57' E 136°38'0 0.0
2018-Apr-22 15:27N 34°57' E 136°38'0 0.0
2018-Apr-22 13:21N 34°57' E 136°38'0 0.0
2018-Apr-22 12:51N 34°57' E 136°38'0 0.0
2018-Apr-22 12:27N 34°57' E 136°38'0 0.0
2018-Apr-22 12:00N 34°57' E 136°38'0 0.0
2018-Apr-22 11:27N 34°57' E 136°38'0 0.0
2018-Apr-22 10:21N 34°57' E 136°38'0 0.0
2018-Apr-22 10:00N 34°57' E 136°38'0 0.0
2018-Apr-22 09:27N 34°57' E 136°38'0 0.0
2018-Apr-22 08:03N 34°57' E 136°38'0 0.0
2018-Apr-22 07:57N 34°57' E 136°38'0 0.0
2018-Apr-22 07:27N 34°57' E 136°38'0 0.0
2018-Apr-22 06:39N 34°57' E 136°38'0 0.0
2018-Apr-22 06:27N 34°57' E 136°38'0 0.0
2018-Apr-22 05:57N 34°57' E 136°38'0 0.0
2018-Apr-22 05:27N 34°57' E 136°38'0 0.0
2018-Apr-22 04:57N 34°57' E 136°38'0 0.0
2018-Apr-22 04:30N 34°57' E 136°38'0 0.0
2018-Apr-22 03:57N 34°57' E 136°38'0 0.0
2018-Apr-22 03:30N 34°57' E 136°38'0 0.0
2018-Apr-22 02:57N 34°57' E 136°38'0 0.0
2018-Apr-22 02:27N 34°57' E 136°38'0 0.0
2018-Apr-22 01:57N 34°57' E 136°38'0 0.0
2018-Apr-22 01:27N 34°57' E 136°38'0 0.0
2018-Apr-22 00:57N 34°57' E 136°38'0 0.0
2018-Apr-21 23:22N 34°57' E 136°38'0 0.2
2018-Apr-21 23:00N 34°57' E 136°38'4 7.2
2018-Apr-21 22:30N 34°56' E 136°43'2 3.8
2018-Apr-21 22:00N 34°54' E 136°44'1 2.9
2018-Apr-21 21:30N 34°53' E 136°44'1 3.0
2018-Apr-21 21:00N 34°51' E 136°45'3 6.4
2018-Apr-21 20:30N 34°48' E 136°46'510.4
2018-Apr-21 20:00N 34°44' E 136°49'510.6
2018-Apr-21 19:30N 34°39' E 136°53'910.4
2018-Apr-21 18:40N 34°34' E 137°01'2 9.7
2018-Apr-21 18:30N 34°32' E 137°02'510.0
2018-Apr-21 18:00N 34°28' E 137°03'105 8.1
2018-Apr-21 05:06N 33°48' E 135°06'410.3
2018-Apr-21 04:44N 33°51' E 135°03'210.4
2018-Apr-21 04:30N 33°53' E 135°02'510.1
2018-Apr-21 04:00N 33°58' E 135°02'5 9.8
2018-Apr-21 03:30N 34°03' E 135°03'5 9.6
2018-Apr-21 03:00N 34°07' E 135°04'5 9.7
2018-Apr-21 02:31N 34°09' E 135°10'2 3.3
2018-Apr-21 02:00N 34°09' E 135°12'0 0.0
2018-Apr-21 00:21N 34°09' E 135°12'0 0.9
2018-Apr-21 00:00N 34°09' E 135°12'2 3.6
2018-Apr-20 23:28N 34°09' E 135°10'0 0.0
2018-Apr-20 22:58N 34°09' E 135°10'0 0.0
2018-Apr-20 22:28N 34°09' E 135°10'0 0.0
2018-Apr-20 21:58N 34°09' E 135°10'0 0.0
2018-Apr-20 21:28N 34°09' E 135°10'0 0.0
2018-Apr-20 20:58N 34°09' E 135°10'0 0.0
2018-Apr-20 20:28N 34°09' E 135°10'0 0.0
2018-Apr-20 19:58N 34°09' E 135°10'0 0.0
2018-Apr-20 19:28N 34°09' E 135°10'0 0.0
2018-Apr-20 18:58N 34°09' E 135°10'0 0.0
2018-Apr-20 18:28N 34°09' E 135°10'0 0.5
2018-Apr-20 18:00N 34°10' E 135°09'510.1
2018-Apr-20 17:31N 34°13' E 135°04'510.0
2018-Apr-20 17:00N 34°16' E 134°60'4 8.5
2018-Apr-20 16:30N 34°20' E 134°60'5 9.2
2018-Apr-20 16:00N 34°25' E 135°01'5 9.7
2018-Apr-20 15:30N 34°30' E 135°02'4 8.8
2018-Apr-20 15:00N 34°34' E 135°03'3 5.7
2018-Apr-20 14:30N 34°37' E 135°01'3 6.8
2018-Apr-20 14:00N 34°36' E 134°57'4 7.8
2018-Apr-20 13:31N 34°35' E 134°53'4 7.9
2018-Apr-20 13:00N 34°33' E 134°49'5 9.2
2018-Apr-20 12:30N 34°31' E 134°43'5 9.9
2018-Apr-20 12:01N 34°29' E 134°38'510.4
2018-Apr-20 11:30N 34°27' E 134°32'510.3
2018-Apr-20 11:00N 34°26' E 134°26'510.5
2018-Apr-20 10:30N 34°24' E 134°20'710.5
2018-Apr-20 09:49N 34°25' E 134°12'5 0.1
2018-Apr-18 22:58N 34°24' E 134°17'611.6
2018-Apr-18 22:28N 34°26' E 134°24'511.6
2018-Apr-18 22:00N 34°28' E 134°30'611.5
2018-Apr-18 21:30N 34°30' E 134°37'611.1
2018-Apr-18 20:59N 34°32' E 134°43'510.9
2018-Apr-18 20:30N 34°34' E 134°49'5 9.8
2018-Apr-18 20:00N 34°36' E 134°54'4 8.7
2018-Apr-18 19:30N 34°38' E 134°59'4 7.1
2018-Apr-18 19:00N 34°36' E 135°03'4 7.7
2018-Apr-18 18:30N 34°33' E 135°05'611.0
2018-Apr-18 18:00N 34°27' E 135°03'510.5
2018-Apr-18 17:30N 34°22' E 135°01'510.4
2018-Apr-18 17:00N 34°17' E 134°59'510.5
2018-Apr-18 16:30N 34°12' E 134°60'611.3
2018-Apr-18 16:00N 34°06' E 135°01'611.4
2018-Apr-18 15:30N 34°01' E 135°01'510.9
2018-Apr-18 15:00N 33°55' E 135°02'510.2
2018-Apr-18 14:30N 33°50' E 135°04'172 9.7
2018-Apr-17 20:42N 34°34' E 138°25'211.0
2018-Apr-17 20:30N 34°34' E 138°28'611.1
2018-Apr-17 19:58N 34°35' E 138°35'711.3
2018-Apr-17 19:23N 34°35' E 138°43'411.7
2018-Apr-17 19:00N 34°35' E 138°49'612.2
2018-Apr-17 18:30N 34°36' E 138°56'612.2
2018-Apr-17 18:00N 34°39' E 139°02'811.9
2018-Apr-17 17:21N 34°45' E 139°08'411.5
2018-Apr-17 17:00N 34°48' E 139°12'1710.7
2018-Apr-17 15:25N 34°58' E 139°29'510.2
2018-Apr-17 14:54N 35°01' E 139°34'410.3
2018-Apr-17 14:30N 35°03' E 139°38'510.8
2018-Apr-17 14:00N 35°07' E 139°43'612.0
2018-Apr-17 13:30N 35°12' E 139°46'612.1
2018-Apr-17 13:00N 35°18' E 139°44'611.3
2018-Apr-17 12:30N 35°23' E 139°43'611.6
2018-Apr-17 12:00N 35°27' E 139°48'510.8
2018-Apr-17 11:30N 35°29' E 139°54'510.5
2018-Apr-17 11:00N 35°29' E 140°00'0 0.7
2018-Apr-17 10:30N 35°29' E 140°01'0 0.0
2018-Apr-17 09:59N 35°29' E 140°01'0 0.1
2018-Apr-17 09:30N 35°29' E 140°01'0 0.1
2018-Apr-17 09:01N 35°29' E 140°01'0 0.0
2018-Apr-17 08:29N 35°29' E 140°01'0 0.0
2018-Apr-17 08:00N 35°29' E 140°01'0 0.1
2018-Apr-17 07:29N 35°29' E 140°01'0 0.1
2018-Apr-17 06:57N 35°29' E 140°01'0 0.0
2018-Apr-17 06:29N 35°29' E 140°01'0 0.0
2018-Apr-17 05:58N 35°29' E 140°01'0 0.0
2018-Apr-17 05:27N 35°29' E 140°01'1 2.9
2018-Apr-17 05:00N 35°30' E 139°59'1 1.6
2018-Apr-17 04:23N 35°30' E 139°58'0 0.0
2018-Apr-17 03:59N 35°30' E 139°58'0 0.0
2018-Apr-17 03:23N 35°30' E 139°58'0 0.0
2018-Apr-17 02:56N 35°30' E 139°58'0 0.0
2018-Apr-17 02:29N 35°30' E 139°58'0 0.0
2018-Apr-17 01:56N 35°30' E 139°58'0 0.0
2018-Apr-17 01:29N 35°30' E 139°58'0 0.0
2018-Apr-17 00:59N 35°30' E 139°58'0 0.0
2018-Apr-17 00:29N 35°30' E 139°58'0 0.1
2018-Apr-16 23:56N 35°30' E 139°58'0 0.1
2018-Apr-16 23:29N 35°30' E 139°58'0 0.0
2018-Apr-16 22:59N 35°30' E 139°58'0 0.0
2018-Apr-16 22:29N 35°30' E 139°58'0 0.1
2018-Apr-16 21:56N 35°30' E 139°58'0 0.0
2018-Apr-16 21:20N 35°30' E 139°58'0 0.0
2018-Apr-16 20:59N 35°30' E 139°58'0 0.4
2018-Apr-16 20:30N 35°30' E 139°58'5 9.9
2018-Apr-16 20:00N 35°28' E 139°52'510.0
2018-Apr-16 19:29N 35°25' E 139°47'510.2
2018-Apr-16 19:00N 35°21' E 139°45'5 9.8
2018-Apr-16 18:30N 35°16' E 139°47'510.3
2018-Apr-16 18:00N 35°11' E 139°47'5 9.7
2018-Apr-16 17:30N 35°06' E 139°45'5 9.9
2018-Apr-16 17:00N 35°03' E 139°40'510.0
2018-Apr-16 16:30N 34°59' E 139°36'2110.7
2018-Apr-16 14:31N 34°47' E 139°15'110.8
2018-Apr-16 14:28N 34°46' E 139°14'710.8
2018-Apr-16 13:47N 34°42' E 139°07'410.3
2018-Apr-16 13:26N 34°40' E 139°04'610.5
2018-Apr-16 12:50N 34°36' E 138°58'201 9.1
2018-Apr-15 14:46N 33°52' E 135°01'311.2
2018-Apr-15 14:28N 33°54' E 134°58'611.2
2018-Apr-15 13:55N 33°59' E 134°54'511.2
2018-Apr-15 13:28N 34°03' E 134°50'510.9
2018-Apr-15 13:00N 34°07' E 134°46'611.2
2018-Apr-15 12:28N 34°12' E 134°41'510.8
2018-Apr-15 11:59N 34°16' E 134°37'510.7
2018-Apr-15 11:31N 34°17' E 134°32'510.6
2018-Apr-15 11:00N 34°19' E 134°26'810.1
2018-Apr-15 10:10N 34°23' E 134°16'  

Dump ship's entire track history